sensor_id;sensor_type;location;lat;lon;timestamp;P1;durP1;ratioP1;P2;durP2;ratioP2
6937;SDS011;40040;42.706;23.372;2023-06-26T00:01:04;28.42;;;21.73;;
6937;SDS011;40040;42.706;23.372;2023-06-26T00:03:31;29.25;;;21.55;;
6937;SDS011;40040;42.706;23.372;2023-06-26T00:05:58;26.98;;;20.70;;
6937;SDS011;40040;42.706;23.372;2023-06-26T00:08:26;25.98;;;20.85;;
6937;SDS011;40040;42.706;23.372;2023-06-26T00:10:53;26.77;;;20.52;;
6937;SDS011;40040;42.706;23.372;2023-06-26T00:13:21;27.05;;;21.15;;
6937;SDS011;40040;42.706;23.372;2023-06-26T00:15:50;25.60;;;20.45;;
6937;SDS011;40040;42.706;23.372;2023-06-26T00:18:17;28.45;;;21.05;;
6937;SDS011;40040;42.706;23.372;2023-06-26T00:20:44;25.25;;;20.38;;
6937;SDS011;40040;42.706;23.372;2023-06-26T00:23:11;25.25;;;20.50;;
6937;SDS011;40040;42.706;23.372;2023-06-26T00:25:41;26.35;;;19.73;;
6937;SDS011;40040;42.706;23.372;2023-06-26T00:28:08;25.83;;;19.98;;
6937;SDS011;40040;42.706;23.372;2023-06-26T00:30:35;26.80;;;19.90;;
6937;SDS011;40040;42.706;23.372;2023-06-26T00:33:04;24.67;;;18.65;;
6937;SDS011;40040;42.706;23.372;2023-06-26T00:35:30;27.70;;;19.58;;
6937;SDS011;40040;42.706;23.372;2023-06-26T00:37:57;25.63;;;20.00;;
6937;SDS011;40040;42.706;23.372;2023-06-26T00:40:24;24.58;;;19.00;;
6937;SDS011;40040;42.706;23.372;2023-06-26T00:42:52;23.98;;;19.70;;
6937;SDS011;40040;42.706;23.372;2023-06-26T00:45:18;23.98;;;18.73;;
6937;SDS011;40040;42.706;23.372;2023-06-26T00:47:45;24.08;;;19.38;;
6937;SDS011;40040;42.706;23.372;2023-06-26T00:50:14;22.63;;;17.92;;
6937;SDS011;40040;42.706;23.372;2023-06-26T00:52:42;23.88;;;18.90;;
6937;SDS011;40040;42.706;23.372;2023-06-26T00:55:09;22.85;;;18.35;;
6937;SDS011;40040;42.706;23.372;2023-06-26T00:57:36;22.35;;;18.33;;
6937;SDS011;40040;42.706;23.372;2023-06-26T01:00:04;21.35;;;18.40;;
6937;SDS011;40040;42.706;23.372;2023-06-26T01:02:32;20.75;;;17.13;;
6937;SDS011;40040;42.706;23.372;2023-06-26T01:04:59;22.00;;;17.30;;
6937;SDS011;40040;42.706;23.372;2023-06-26T01:07:30;22.35;;;17.95;;
6937;SDS011;40040;42.706;23.372;2023-06-26T01:09:57;20.98;;;17.33;;
6937;SDS011;40040;42.706;23.372;2023-06-26T01:12:25;20.75;;;17.10;;
6937;SDS011;40040;42.706;23.372;2023-06-26T01:14:52;19.83;;;16.90;;
6937;SDS011;40040;42.706;23.372;2023-06-26T01:17:19;20.80;;;16.23;;
6937;SDS011;40040;42.706;23.372;2023-06-26T01:19:46;20.17;;;16.67;;
6937;SDS011;40040;42.706;23.372;2023-06-26T01:22:16;19.02;;;16.73;;
6937;SDS011;40040;42.706;23.372;2023-06-26T01:24:56;19.85;;;16.52;;
6937;SDS011;40040;42.706;23.372;2023-06-26T01:27:33;20.60;;;17.10;;
6937;SDS011;40040;42.706;23.372;2023-06-26T01:30:01;21.50;;;16.45;;
6937;SDS011;40040;42.706;23.372;2023-06-26T01:32:29;18.23;;;15.95;;
6937;SDS011;40040;42.706;23.372;2023-06-26T01:34:57;19.42;;;16.27;;
6937;SDS011;40040;42.706;23.372;2023-06-26T01:37:24;21.98;;;16.73;;
6937;SDS011;40040;42.706;23.372;2023-06-26T01:39:51;20.42;;;15.95;;
6937;SDS011;40040;42.706;23.372;2023-06-26T01:42:18;21.65;;;16.25;;
6937;SDS011;40040;42.706;23.372;2023-06-26T01:44:47;20.83;;;16.05;;
6937;SDS011;40040;42.706;23.372;2023-06-26T01:47:14;18.50;;;16.38;;
6937;SDS011;40040;42.706;23.372;2023-06-26T01:49:47;18.85;;;16.10;;
6937;SDS011;40040;42.706;23.372;2023-06-26T01:52:18;21.80;;;16.23;;
6937;SDS011;40040;42.706;23.372;2023-06-26T01:54:55;18.60;;;16.60;;
6937;SDS011;40040;42.706;23.372;2023-06-26T01:57:25;19.10;;;17.08;;
6937;SDS011;40040;42.706;23.372;2023-06-26T01:59:55;20.10;;;16.42;;
6937;SDS011;40040;42.706;23.372;2023-06-26T02:02:23;21.02;;;16.60;;
6937;SDS011;40040;42.706;23.372;2023-06-26T02:04:51;21.67;;;17.50;;
6937;SDS011;40040;42.706;23.372;2023-06-26T02:07:18;22.60;;;17.13;;
6937;SDS011;40040;42.706;23.372;2023-06-26T02:09:44;19.10;;;16.45;;
6937;SDS011;40040;42.706;23.372;2023-06-26T02:12:11;19.20;;;17.02;;
6937;SDS011;40040;42.706;23.372;2023-06-26T02:14:38;19.15;;;16.10;;
6937;SDS011;40040;42.706;23.372;2023-06-26T02:17:06;20.13;;;16.90;;
6937;SDS011;40040;42.706;23.372;2023-06-26T02:19:34;20.70;;;17.10;;
6937;SDS011;40040;42.706;23.372;2023-06-26T02:22:01;19.27;;;16.08;;
6937;SDS011;40040;42.706;23.372;2023-06-26T02:24:27;19.08;;;16.77;;
6937;SDS011;40040;42.706;23.372;2023-06-26T02:26:55;19.95;;;16.90;;
6937;SDS011;40040;42.706;23.372;2023-06-26T02:29:22;20.33;;;16.38;;
6937;SDS011;40040;42.706;23.372;2023-06-26T02:31:49;19.17;;;16.90;;
6937;SDS011;40040;42.706;23.372;2023-06-26T02:34:17;20.92;;;16.90;;
6937;SDS011;40040;42.706;23.372;2023-06-26T02:36:44;18.67;;;16.60;;
6937;SDS011;40040;42.706;23.372;2023-06-26T02:39:11;19.77;;;17.67;;
6937;SDS011;40040;42.706;23.372;2023-06-26T02:41:39;24.58;;;18.45;;
6937;SDS011;40040;42.706;23.372;2023-06-26T02:44:06;23.20;;;19.15;;
6937;SDS011;40040;42.706;23.372;2023-06-26T02:46:33;21.48;;;18.50;;
6937;SDS011;40040;42.706;23.372;2023-06-26T02:49:00;23.88;;;18.55;;
6937;SDS011;40040;42.706;23.372;2023-06-26T02:51:28;21.52;;;19.02;;
6937;SDS011;40040;42.706;23.372;2023-06-26T02:53:55;23.60;;;19.40;;
6937;SDS011;40040;42.706;23.372;2023-06-26T02:56:21;25.33;;;20.27;;
6937;SDS011;40040;42.706;23.372;2023-06-26T02:58:48;27.75;;;20.15;;
6937;SDS011;40040;42.706;23.372;2023-06-26T03:01:15;24.42;;;20.17;;
6937;SDS011;40040;42.706;23.372;2023-06-26T03:03:42;27.77;;;21.23;;
6937;SDS011;40040;42.706;23.372;2023-06-26T03:06:09;25.83;;;21.58;;
6937;SDS011;40040;42.706;23.372;2023-06-26T03:08:37;29.30;;;21.50;;
6937;SDS011;40040;42.706;23.372;2023-06-26T03:11:05;27.10;;;21.65;;
6937;SDS011;40040;42.706;23.372;2023-06-26T03:13:32;28.75;;;22.52;;
6937;SDS011;40040;42.706;23.372;2023-06-26T03:15:58;29.35;;;23.23;;
6937;SDS011;40040;42.706;23.372;2023-06-26T03:18:25;28.00;;;21.75;;
6937;SDS011;40040;42.706;23.372;2023-06-26T03:20:52;28.73;;;22.73;;
6937;SDS011;40040;42.706;23.372;2023-06-26T03:23:20;29.52;;;22.92;;
6937;SDS011;40040;42.706;23.372;2023-06-26T03:25:48;29.77;;;22.75;;
6937;SDS011;40040;42.706;23.372;2023-06-26T03:28:15;30.70;;;23.50;;
6937;SDS011;40040;42.706;23.372;2023-06-26T03:30:42;27.95;;;22.20;;
6937;SDS011;40040;42.706;23.372;2023-06-26T03:33:10;28.27;;;23.15;;
6937;SDS011;40040;42.706;23.372;2023-06-26T03:35:37;29.23;;;22.80;;
6937;SDS011;40040;42.706;23.372;2023-06-26T03:38:04;29.60;;;22.48;;
6937;SDS011;40040;42.706;23.372;2023-06-26T03:40:31;26.92;;;23.15;;
6937;SDS011;40040;42.706;23.372;2023-06-26T03:43:00;30.65;;;24.15;;
6937;SDS011;40040;42.706;23.372;2023-06-26T03:45:26;29.85;;;22.98;;
6937;SDS011;40040;42.706;23.372;2023-06-26T03:47:53;29.65;;;23.63;;
6937;SDS011;40040;42.706;23.372;2023-06-26T03:50:20;29.48;;;23.30;;
6937;SDS011;40040;42.706;23.372;2023-06-26T03:52:47;30.02;;;23.55;;
6937;SDS011;40040;42.706;23.372;2023-06-26T03:55:15;28.60;;;24.00;;
6937;SDS011;40040;42.706;23.372;2023-06-26T03:57:43;32.53;;;24.52;;
6937;SDS011;40040;42.706;23.372;2023-06-26T04:00:12;31.98;;;23.90;;
6937;SDS011;40040;42.706;23.372;2023-06-26T04:02:40;28.55;;;23.42;;
6937;SDS011;40040;42.706;23.372;2023-06-26T04:05:07;31.13;;;23.00;;
6937;SDS011;40040;42.706;23.372;2023-06-26T04:07:34;28.98;;;23.65;;
6937;SDS011;40040;42.706;23.372;2023-06-26T04:10:01;27.73;;;23.88;;
6937;SDS011;40040;42.706;23.372;2023-06-26T04:12:28;30.02;;;23.60;;
6937;SDS011;40040;42.706;23.372;2023-06-26T04:14:55;29.00;;;23.50;;
6937;SDS011;40040;42.706;23.372;2023-06-26T04:17:23;28.27;;;23.50;;
6937;SDS011;40040;42.706;23.372;2023-06-26T04:19:50;27.77;;;22.55;;
6937;SDS011;40040;42.706;23.372;2023-06-26T04:22:16;33.92;;;24.75;;
6937;SDS011;40040;42.706;23.372;2023-06-26T04:24:43;29.60;;;24.20;;
6937;SDS011;40040;42.706;23.372;2023-06-26T04:27:11;30.52;;;23.58;;
6937;SDS011;40040;42.706;23.372;2023-06-26T04:29:39;28.23;;;22.60;;
6937;SDS011;40040;42.706;23.372;2023-06-26T04:32:06;28.70;;;23.05;;
6937;SDS011;40040;42.706;23.372;2023-06-26T04:34:34;28.58;;;23.38;;
6937;SDS011;40040;42.706;23.372;2023-06-26T04:37:06;29.15;;;22.75;;
6937;SDS011;40040;42.706;23.372;2023-06-26T04:39:34;29.58;;;22.80;;
6937;SDS011;40040;42.706;23.372;2023-06-26T04:42:02;29.17;;;22.65;;
6937;SDS011;40040;42.706;23.372;2023-06-26T04:44:29;28.05;;;23.05;;
6937;SDS011;40040;42.706;23.372;2023-06-26T04:46:55;28.15;;;23.27;;
6937;SDS011;40040;42.706;23.372;2023-06-26T04:49:22;28.42;;;23.23;;
6937;SDS011;40040;42.706;23.372;2023-06-26T04:51:50;25.23;;;21.85;;
6937;SDS011;40040;42.706;23.372;2023-06-26T04:54:18;27.70;;;22.00;;
6937;SDS011;40040;42.706;23.372;2023-06-26T04:56:45;28.45;;;23.17;;
6937;SDS011;40040;42.706;23.372;2023-06-26T04:59:13;27.42;;;22.60;;
6937;SDS011;40040;42.706;23.372;2023-06-26T05:01:40;27.13;;;23.33;;
6937;SDS011;40040;42.706;23.372;2023-06-26T05:04:07;32.95;;;23.98;;
6937;SDS011;40040;42.706;23.372;2023-06-26T05:06:33;32.55;;;23.25;;
6937;SDS011;40040;42.706;23.372;2023-06-26T05:09:02;27.63;;;23.00;;
6937;SDS011;40040;42.706;23.372;2023-06-26T05:11:29;26.95;;;21.70;;
6937;SDS011;40040;42.706;23.372;2023-06-26T05:13:55;30.25;;;21.35;;
6937;SDS011;40040;42.706;23.372;2023-06-26T05:16:22;27.08;;;21.30;;
6937;SDS011;40040;42.706;23.372;2023-06-26T05:18:49;23.92;;;20.67;;
6937;SDS011;40040;42.706;23.372;2023-06-26T05:21:16;29.00;;;22.00;;
6937;SDS011;40040;42.706;23.372;2023-06-26T05:23:43;25.00;;;21.90;;
6937;SDS011;40040;42.706;23.372;2023-06-26T05:26:14;30.38;;;21.40;;
6937;SDS011;40040;42.706;23.372;2023-06-26T05:28:41;26.20;;;20.60;;
6937;SDS011;40040;42.706;23.372;2023-06-26T05:31:09;25.00;;;21.35;;
6937;SDS011;40040;42.706;23.372;2023-06-26T05:33:37;23.77;;;20.63;;
6937;SDS011;40040;42.706;23.372;2023-06-26T05:36:05;23.92;;;20.38;;
6937;SDS011;40040;42.706;23.372;2023-06-26T05:38:35;24.10;;;20.65;;
6937;SDS011;40040;42.706;23.372;2023-06-26T05:41:02;25.88;;;21.13;;
6937;SDS011;40040;42.706;23.372;2023-06-26T05:43:30;25.40;;;21.15;;
6937;SDS011;40040;42.706;23.372;2023-06-26T05:45:57;23.08;;;20.10;;
6937;SDS011;40040;42.706;23.372;2023-06-26T05:48:24;28.95;;;19.90;;
6937;SDS011;40040;42.706;23.372;2023-06-26T05:50:51;23.02;;;19.30;;
6937;SDS011;40040;42.706;23.372;2023-06-26T05:53:18;25.10;;;20.38;;
6937;SDS011;40040;42.706;23.372;2023-06-26T05:55:45;23.45;;;18.70;;
6937;SDS011;40040;42.706;23.372;2023-06-26T05:58:13;21.35;;;18.40;;
6937;SDS011;40040;42.706;23.372;2023-06-26T06:00:43;23.23;;;19.23;;
6937;SDS011;40040;42.706;23.372;2023-06-26T06:03:10;27.20;;;19.23;;
6937;SDS011;40040;42.706;23.372;2023-06-26T06:05:36;21.90;;;19.50;;
6937;SDS011;40040;42.706;23.372;2023-06-26T06:08:03;23.63;;;19.35;;
6937;SDS011;40040;42.706;23.372;2023-06-26T06:10:30;21.90;;;18.98;;
6937;SDS011;40040;42.706;23.372;2023-06-26T06:12:57;22.13;;;18.27;;
6937;SDS011;40040;42.706;23.372;2023-06-26T06:15:24;20.70;;;18.45;;
6937;SDS011;40040;42.706;23.372;2023-06-26T06:17:52;21.48;;;18.52;;
6937;SDS011;40040;42.706;23.372;2023-06-26T06:20:19;23.50;;;18.75;;
6937;SDS011;40040;42.706;23.372;2023-06-26T06:22:46;21.30;;;18.55;;
6937;SDS011;40040;42.706;23.372;2023-06-26T06:25:14;21.15;;;17.77;;
6937;SDS011;40040;42.706;23.372;2023-06-26T06:27:41;21.77;;;17.75;;
6937;SDS011;40040;42.706;23.372;2023-06-26T06:30:08;21.70;;;17.98;;
6937;SDS011;40040;42.706;23.372;2023-06-26T06:32:36;20.23;;;17.52;;
6937;SDS011;40040;42.706;23.372;2023-06-26T06:35:05;19.58;;;17.25;;
6937;SDS011;40040;42.706;23.372;2023-06-26T06:37:36;20.33;;;17.42;;
6937;SDS011;40040;42.706;23.372;2023-06-26T06:40:04;19.45;;;16.48;;
6937;SDS011;40040;42.706;23.372;2023-06-26T06:42:32;20.98;;;16.55;;
6937;SDS011;40040;42.706;23.372;2023-06-26T06:45:00;17.75;;;15.90;;
6937;SDS011;40040;42.706;23.372;2023-06-26T06:47:27;21.45;;;16.30;;
6937;SDS011;40040;42.706;23.372;2023-06-26T06:49:54;18.40;;;16.00;;
6937;SDS011;40040;42.706;23.372;2023-06-26T06:52:22;18.60;;;16.60;;
6937;SDS011;40040;42.706;23.372;2023-06-26T06:54:53;17.98;;;15.13;;
6937;SDS011;40040;42.706;23.372;2023-06-26T06:57:20;16.25;;;13.95;;
6937;SDS011;40040;42.706;23.372;2023-06-26T06:59:47;15.32;;;13.70;;
6937;SDS011;40040;42.706;23.372;2023-06-26T07:02:15;17.52;;;14.30;;
6937;SDS011;40040;42.706;23.372;2023-06-26T07:04:43;15.70;;;13.93;;
6937;SDS011;40040;42.706;23.372;2023-06-26T07:07:10;15.50;;;12.88;;
6937;SDS011;40040;42.706;23.372;2023-06-26T07:09:38;14.13;;;12.73;;
6937;SDS011;40040;42.706;23.372;2023-06-26T07:12:05;17.67;;;13.48;;
6937;SDS011;40040;42.706;23.372;2023-06-26T07:14:32;16.50;;;13.20;;
6937;SDS011;40040;42.706;23.372;2023-06-26T07:16:59;14.60;;;13.00;;
6937;SDS011;40040;42.706;23.372;2023-06-26T07:19:25;13.68;;;12.20;;
6937;SDS011;40040;42.706;23.372;2023-06-26T07:21:52;13.15;;;11.82;;
6937;SDS011;40040;42.706;23.372;2023-06-26T07:24:19;13.48;;;12.10;;
6937;SDS011;40040;42.706;23.372;2023-06-26T07:26:47;13.40;;;12.00;;
6937;SDS011;40040;42.706;23.372;2023-06-26T07:29:14;14.43;;;12.68;;
6937;SDS011;40040;42.706;23.372;2023-06-26T07:31:41;12.07;;;10.88;;
6937;SDS011;40040;42.706;23.372;2023-06-26T07:34:09;12.73;;;11.48;;
6937;SDS011;40040;42.706;23.372;2023-06-26T07:36:36;12.50;;;11.20;;
6937;SDS011;40040;42.706;23.372;2023-06-26T07:39:03;11.93;;;10.73;;
6937;SDS011;40040;42.706;23.372;2023-06-26T07:41:29;13.15;;;10.90;;
6937;SDS011;40040;42.706;23.372;2023-06-26T07:43:58;11.07;;;10.07;;
6937;SDS011;40040;42.706;23.372;2023-06-26T07:46:25;10.13;;;9.20;;
6937;SDS011;40040;42.706;23.372;2023-06-26T07:48:52;11.00;;;9.90;;
6937;SDS011;40040;42.706;23.372;2023-06-26T07:51:19;11.55;;;10.38;;
6937;SDS011;40040;42.706;23.372;2023-06-26T07:53:46;8.63;;;7.93;;
6937;SDS011;40040;42.706;23.372;2023-06-26T07:56:13;10.32;;;9.18;;
6937;SDS011;40040;42.706;23.372;2023-06-26T07:58:40;10.13;;;8.20;;
6937;SDS011;40040;42.706;23.372;2023-06-26T08:01:08;9.13;;;8.30;;
6937;SDS011;40040;42.706;23.372;2023-06-26T08:03:35;10.13;;;9.23;;
6937;SDS011;40040;42.706;23.372;2023-06-26T08:06:01;9.73;;;8.98;;
6937;SDS011;40040;42.706;23.372;2023-06-26T08:08:29;11.18;;;9.02;;
6937;SDS011;40040;42.706;23.372;2023-06-26T08:10:56;9.07;;;8.18;;
6937;SDS011;40040;42.706;23.372;2023-06-26T08:13:23;8.90;;;8.10;;
6937;SDS011;40040;42.706;23.372;2023-06-26T08:15:50;8.57;;;7.80;;
6937;SDS011;40040;42.706;23.372;2023-06-26T08:18:18;9.25;;;8.40;;
6937;SDS011;40040;42.706;23.372;2023-06-26T08:20:45;9.63;;;8.57;;
6937;SDS011;40040;42.706;23.372;2023-06-26T08:23:12;8.85;;;7.85;;
6937;SDS011;40040;42.706;23.372;2023-06-26T08:25:39;8.88;;;8.00;;
6937;SDS011;40040;42.706;23.372;2023-06-26T08:28:05;9.52;;;7.97;;
6937;SDS011;40040;42.706;23.372;2023-06-26T08:30:32;12.15;;;9.20;;
6937;SDS011;40040;42.706;23.372;2023-06-26T08:32:59;9.85;;;8.57;;
6937;SDS011;40040;42.706;23.372;2023-06-26T08:35:27;9.23;;;8.52;;
6937;SDS011;40040;42.706;23.372;2023-06-26T08:37:54;9.45;;;8.55;;
6937;SDS011;40040;42.706;23.372;2023-06-26T08:40:21;9.27;;;8.45;;
6937;SDS011;40040;42.706;23.372;2023-06-26T08:42:48;8.63;;;7.88;;
6937;SDS011;40040;42.706;23.372;2023-06-26T08:45:17;7.95;;;7.25;;
6937;SDS011;40040;42.706;23.372;2023-06-26T08:47:44;7.97;;;7.18;;
6937;SDS011;40040;42.706;23.372;2023-06-26T08:50:14;8.48;;;7.78;;
6937;SDS011;40040;42.706;23.372;2023-06-26T08:52:49;9.50;;;8.52;;
6937;SDS011;40040;42.706;23.372;2023-06-26T08:55:23;9.25;;;8.38;;
6937;SDS011;40040;42.706;23.372;2023-06-26T08:57:53;8.52;;;7.78;;
6937;SDS011;40040;42.706;23.372;2023-06-26T09:00:20;8.63;;;7.82;;
6937;SDS011;40040;42.706;23.372;2023-06-26T09:02:47;9.63;;;8.68;;
6937;SDS011;40040;42.706;23.372;2023-06-26T09:05:13;10.57;;;8.60;;
6937;SDS011;40040;42.706;23.372;2023-06-26T09:07:41;11.32;;;7.82;;
6937;SDS011;40040;42.706;23.372;2023-06-26T09:10:09;7.90;;;7.30;;
6937;SDS011;40040;42.706;23.372;2023-06-26T09:12:36;8.45;;;7.65;;
6937;SDS011;40040;42.706;23.372;2023-06-26T09:15:05;7.90;;;7.20;;
6937;SDS011;40040;42.706;23.372;2023-06-26T09:17:33;8.63;;;7.93;;
6937;SDS011;40040;42.706;23.372;2023-06-26T09:20:04;8.32;;;7.53;;
6937;SDS011;40040;42.706;23.372;2023-06-26T09:22:33;9.65;;;7.75;;
6937;SDS011;40040;42.706;23.372;2023-06-26T09:25:02;10.02;;;7.75;;
6937;SDS011;40040;42.706;23.372;2023-06-26T09:27:31;8.68;;;7.97;;
6937;SDS011;40040;42.706;23.372;2023-06-26T09:29:57;8.15;;;7.45;;
6937;SDS011;40040;42.706;23.372;2023-06-26T09:32:24;8.52;;;7.82;;
6937;SDS011;40040;42.706;23.372;2023-06-26T09:34:53;8.05;;;7.35;;
6937;SDS011;40040;42.706;23.372;2023-06-26T09:37:21;7.53;;;6.93;;
6937;SDS011;40040;42.706;23.372;2023-06-26T09:39:48;8.00;;;7.22;;
6937;SDS011;40040;42.706;23.372;2023-06-26T09:42:15;7.50;;;6.80;;
6937;SDS011;40040;42.706;23.372;2023-06-26T09:44:44;9.02;;;7.55;;
6937;SDS011;40040;42.706;23.372;2023-06-26T09:47:11;8.18;;;7.47;;
6937;SDS011;40040;42.706;23.372;2023-06-26T09:49:40;7.65;;;6.95;;
6937;SDS011;40040;42.706;23.372;2023-06-26T09:52:08;7.13;;;6.53;;
6937;SDS011;40040;42.706;23.372;2023-06-26T09:54:35;7.20;;;6.63;;
6937;SDS011;40040;42.706;23.372;2023-06-26T09:57:08;10.73;;;7.60;;
6937;SDS011;40040;42.706;23.372;2023-06-26T09:59:35;7.53;;;6.50;;
6937;SDS011;40040;42.706;23.372;2023-06-26T10:02:04;8.00;;;6.53;;
6937;SDS011;40040;42.706;23.372;2023-06-26T10:04:31;6.97;;;6.40;;
6937;SDS011;40040;42.706;23.372;2023-06-26T10:06:58;7.30;;;6.70;;
6937;SDS011;40040;42.706;23.372;2023-06-26T10:09:28;7.68;;;6.97;;
6937;SDS011;40040;42.706;23.372;2023-06-26T10:11:57;7.50;;;6.90;;
6937;SDS011;40040;42.706;23.372;2023-06-26T10:14:33;8.00;;;7.20;;
6937;SDS011;40040;42.706;23.372;2023-06-26T10:17:01;8.05;;;7.32;;
6937;SDS011;40040;42.706;23.372;2023-06-26T10:19:35;8.18;;;7.38;;
6937;SDS011;40040;42.706;23.372;2023-06-26T10:22:04;9.23;;;8.30;;
6937;SDS011;40040;42.706;23.372;2023-06-26T10:24:33;10.07;;;8.65;;
6937;SDS011;40040;42.706;23.372;2023-06-26T10:27:02;8.80;;;8.10;;
6937;SDS011;40040;42.706;23.372;2023-06-26T10:29:32;10.27;;;8.65;;
6937;SDS011;40040;42.706;23.372;2023-06-26T10:32:02;10.63;;;9.52;;
6937;SDS011;40040;42.706;23.372;2023-06-26T10:34:33;9.68;;;8.75;;
6937;SDS011;40040;42.706;23.372;2023-06-26T10:37:00;11.93;;;9.27;;
6937;SDS011;40040;42.706;23.372;2023-06-26T10:39:32;11.38;;;9.02;;
6937;SDS011;40040;42.706;23.372;2023-06-26T10:42:13;9.20;;;8.30;;
6937;SDS011;40040;42.706;23.372;2023-06-26T10:44:40;9.48;;;7.30;;
6937;SDS011;40040;42.706;23.372;2023-06-26T10:47:09;8.40;;;7.60;;
6937;SDS011;40040;42.706;23.372;2023-06-26T10:49:37;9.13;;;8.32;;
6937;SDS011;40040;42.706;23.372;2023-06-26T10:52:05;9.15;;;8.02;;
6937;SDS011;40040;42.706;23.372;2023-06-26T10:54:33;9.15;;;8.10;;
6937;SDS011;40040;42.706;23.372;2023-06-26T10:57:01;8.13;;;7.32;;
6937;SDS011;40040;42.706;23.372;2023-06-26T10:59:29;8.45;;;7.65;;
6937;SDS011;40040;42.706;23.372;2023-06-26T11:01:59;9.35;;;7.65;;
6937;SDS011;40040;42.706;23.372;2023-06-26T11:04:37;8.07;;;7.18;;
6937;SDS011;40040;42.706;23.372;2023-06-26T11:07:15;7.78;;;6.95;;
6937;SDS011;40040;42.706;23.372;2023-06-26T11:09:55;7.60;;;7.00;;
6937;SDS011;40040;42.706;23.372;2023-06-26T11:12:33;7.72;;;7.03;;
6937;SDS011;40040;42.706;23.372;2023-06-26T11:15:02;8.55;;;7.70;;
6937;SDS011;40040;42.706;23.372;2023-06-26T11:17:29;7.93;;;7.22;;
6937;SDS011;40040;42.706;23.372;2023-06-26T11:19:57;8.45;;;7.55;;
6937;SDS011;40040;42.706;23.372;2023-06-26T11:22:25;9.38;;;8.45;;
6937;SDS011;40040;42.706;23.372;2023-06-26T11:24:53;9.45;;;7.90;;
6937;SDS011;40040;42.706;23.372;2023-06-26T11:27:20;9.98;;;7.72;;
6937;SDS011;40040;42.706;23.372;2023-06-26T11:29:49;8.88;;;8.07;;
6937;SDS011;40040;42.706;23.372;2023-06-26T11:32:16;8.55;;;7.72;;
6937;SDS011;40040;42.706;23.372;2023-06-26T11:34:43;8.82;;;7.93;;
6937;SDS011;40040;42.706;23.372;2023-06-26T11:37:11;8.75;;;7.90;;
6937;SDS011;40040;42.706;23.372;2023-06-26T11:39:38;11.48;;;7.55;;
6937;SDS011;40040;42.706;23.372;2023-06-26T11:42:05;9.38;;;8.10;;
6937;SDS011;40040;42.706;23.372;2023-06-26T11:44:32;9.20;;;7.25;;
6937;SDS011;40040;42.706;23.372;2023-06-26T11:47:07;9.80;;;8.15;;
6937;SDS011;40040;42.706;23.372;2023-06-26T11:49:34;7.05;;;6.55;;
6937;SDS011;40040;42.706;23.372;2023-06-26T11:52:02;8.77;;;6.40;;
6937;SDS011;40040;42.706;23.372;2023-06-26T11:54:31;7.43;;;6.72;;
6937;SDS011;40040;42.706;23.372;2023-06-26T11:56:58;7.55;;;6.85;;
6937;SDS011;40040;42.706;23.372;2023-06-26T11:59:33;6.55;;;6.00;;
6937;SDS011;40040;42.706;23.372;2023-06-26T12:02:04;7.10;;;6.50;;
6937;SDS011;40040;42.706;23.372;2023-06-26T12:04:33;8.70;;;6.88;;
6937;SDS011;40040;42.706;23.372;2023-06-26T12:07:02;9.35;;;7.45;;
6937;SDS011;40040;42.706;23.372;2023-06-26T12:09:33;7.38;;;6.78;;
6937;SDS011;40040;42.706;23.372;2023-06-26T12:12:05;8.02;;;7.00;;
6937;SDS011;40040;42.706;23.372;2023-06-26T12:14:32;8.07;;;7.25;;
6937;SDS011;40040;42.706;23.372;2023-06-26T12:17:07;7.30;;;6.60;;
6937;SDS011;40040;42.706;23.372;2023-06-26T12:19:36;7.95;;;7.25;;
6937;SDS011;40040;42.706;23.372;2023-06-26T12:22:06;8.57;;;7.20;;
6937;SDS011;40040;42.706;23.372;2023-06-26T12:24:35;8.73;;;7.07;;
6937;SDS011;40040;42.706;23.372;2023-06-26T12:27:06;8.27;;;7.47;;
6937;SDS011;40040;42.706;23.372;2023-06-26T12:29:35;7.78;;;6.72;;
6937;SDS011;40040;42.706;23.372;2023-06-26T12:32:02;10.05;;;6.30;;
6937;SDS011;40040;42.706;23.372;2023-06-26T12:34:30;8.77;;;7.13;;
6937;SDS011;40040;42.706;23.372;2023-06-26T12:36:59;8.13;;;7.35;;
6937;SDS011;40040;42.706;23.372;2023-06-26T12:39:28;7.60;;;6.90;;
6937;SDS011;40040;42.706;23.372;2023-06-26T12:41:59;7.63;;;6.93;;
6937;SDS011;40040;42.706;23.372;2023-06-26T12:44:29;8.38;;;7.68;;
6937;SDS011;40040;42.706;23.372;2023-06-26T12:46:58;7.78;;;7.07;;
6937;SDS011;40040;42.706;23.372;2023-06-26T12:49:29;8.07;;;7.40;;
6937;SDS011;40040;42.706;23.372;2023-06-26T12:51:57;8.23;;;7.50;;
6937;SDS011;40040;42.706;23.372;2023-06-26T12:54:24;8.77;;;7.88;;
6937;SDS011;40040;42.706;23.372;2023-06-26T12:56:51;8.25;;;7.45;;
6937;SDS011;40040;42.706;23.372;2023-06-26T12:59:20;8.70;;;7.80;;
6937;SDS011;40040;42.706;23.372;2023-06-26T13:01:47;7.80;;;7.10;;
6937;SDS011;40040;42.706;23.372;2023-06-26T13:04:14;8.45;;;7.03;;
6937;SDS011;40040;42.706;23.372;2023-06-26T13:06:41;7.85;;;7.07;;
6937;SDS011;40040;42.706;23.372;2023-06-26T13:09:07;6.97;;;6.47;;
6937;SDS011;40040;42.706;23.372;2023-06-26T13:11:36;8.18;;;7.38;;
6937;SDS011;40040;42.706;23.372;2023-06-26T13:14:03;9.00;;;7.32;;
6937;SDS011;40040;42.706;23.372;2023-06-26T13:16:31;8.35;;;7.55;;
6937;SDS011;40040;42.706;23.372;2023-06-26T13:18:58;10.32;;;7.38;;
6937;SDS011;40040;42.706;23.372;2023-06-26T13:21:26;7.90;;;7.03;;
6937;SDS011;40040;42.706;23.372;2023-06-26T13:23:54;8.75;;;6.47;;
6937;SDS011;40040;42.706;23.372;2023-06-26T13:26:21;7.85;;;7.05;;
6937;SDS011;40040;42.706;23.372;2023-06-26T13:28:48;8.68;;;7.70;;
6937;SDS011;40040;42.706;23.372;2023-06-26T13:31:15;7.72;;;7.03;;
6937;SDS011;40040;42.706;23.372;2023-06-26T13:33:44;7.75;;;6.97;;
6937;SDS011;40040;42.706;23.372;2023-06-26T13:36:11;10.15;;;7.00;;
6937;SDS011;40040;42.706;23.372;2023-06-26T13:38:39;8.45;;;7.50;;
6937;SDS011;40040;42.706;23.372;2023-06-26T13:41:06;7.78;;;6.93;;
6937;SDS011;40040;42.706;23.372;2023-06-26T13:43:33;8.45;;;7.57;;
6937;SDS011;40040;42.706;23.372;2023-06-26T13:45:59;9.50;;;7.45;;
6937;SDS011;40040;42.706;23.372;2023-06-26T13:48:26;11.40;;;7.88;;
6937;SDS011;40040;42.706;23.372;2023-06-26T13:50:55;7.85;;;7.15;;
6937;SDS011;40040;42.706;23.372;2023-06-26T13:53:22;8.35;;;7.00;;
6937;SDS011;40040;42.706;23.372;2023-06-26T13:55:49;8.73;;;7.28;;
6937;SDS011;40040;42.706;23.372;2023-06-26T13:58:15;8.07;;;7.38;;
6937;SDS011;40040;42.706;23.372;2023-06-26T14:00:42;8.50;;;7.63;;
6937;SDS011;40040;42.706;23.372;2023-06-26T14:03:10;7.82;;;7.03;;
6937;SDS011;40040;42.706;23.372;2023-06-26T14:05:37;7.85;;;7.25;;
6937;SDS011;40040;42.706;23.372;2023-06-26T14:08:06;7.75;;;7.15;;
6937;SDS011;40040;42.706;23.372;2023-06-26T14:10:35;7.85;;;7.13;;
6937;SDS011;40040;42.706;23.372;2023-06-26T14:13:02;7.95;;;7.15;;
6937;SDS011;40040;42.706;23.372;2023-06-26T14:15:30;8.52;;;7.72;;
6937;SDS011;40040;42.706;23.372;2023-06-26T14:17:57;8.40;;;7.70;;
6937;SDS011;40040;42.706;23.372;2023-06-26T14:20:24;8.68;;;7.80;;
6937;SDS011;40040;42.706;23.372;2023-06-26T14:22:52;8.82;;;7.93;;
6937;SDS011;40040;42.706;23.372;2023-06-26T14:25:21;8.52;;;7.75;;
6937;SDS011;40040;42.706;23.372;2023-06-26T14:27:47;8.75;;;7.95;;
6937;SDS011;40040;42.706;23.372;2023-06-26T14:30:14;8.85;;;8.00;;
6937;SDS011;40040;42.706;23.372;2023-06-26T14:32:41;9.05;;;8.15;;
6937;SDS011;40040;42.706;23.372;2023-06-26T14:35:08;9.40;;;8.50;;
6937;SDS011;40040;42.706;23.372;2023-06-26T14:37:35;9.02;;;8.20;;